sensor_id;sensor_type;location;lat;lon;timestamp;temperature;humidity
5128;DHT22;2582;48.770;9.190;2023-07-09T00:00:51;24.90;94.10
5128;DHT22;2582;48.770;9.190;2023-07-09T00:03:18;24.90;94.10
5128;DHT22;2582;48.770;9.190;2023-07-09T00:05:46;24.80;94.30
5128;DHT22;2582;48.770;9.190;2023-07-09T00:08:40;24.80;94.60
5128;DHT22;2582;48.770;9.190;2023-07-09T00:11:07;24.80;94.90
5128;DHT22;2582;48.770;9.190;2023-07-09T00:13:32;24.80;95.10
5128;DHT22;2582;48.770;9.190;2023-07-09T00:16:00;24.60;95.50
5128;DHT22;2582;48.770;9.190;2023-07-09T00:18:26;24.50;95.80
5128;DHT22;2582;48.770;9.190;2023-07-09T00:20:52;24.40;96.40
5128;DHT22;2582;48.770;9.190;2023-07-09T00:23:17;24.30;96.80
5128;DHT22;2582;48.770;9.190;2023-07-09T00:25:45;24.30;96.70
5128;DHT22;2582;48.770;9.190;2023-07-09T00:28:15;24.30;96.90
5128;DHT22;2582;48.770;9.190;2023-07-09T00:30:41;24.30;97.30
5128;DHT22;2582;48.770;9.190;2023-07-09T00:33:16;24.20;97.60
5128;DHT22;2582;48.770;9.190;2023-07-09T00:35:45;24.20;97.90
5128;DHT22;2582;48.770;9.190;2023-07-09T00:38:29;24.20;97.80
5128;DHT22;2582;48.770;9.190;2023-07-09T00:43:32;24.20;98.30
5128;DHT22;2582;48.770;9.190;2023-07-09T00:48:50;24.20;98.60
5128;DHT22;2582;48.770;9.190;2023-07-09T00:51:19;24.20;98.60
5128;DHT22;2582;48.770;9.190;2023-07-09T00:53:47;24.30;98.70
5128;DHT22;2582;48.770;9.190;2023-07-09T00:56:17;24.40;98.50
5128;DHT22;2582;48.770;9.190;2023-07-09T00:58:47;24.50;98.40
5128;DHT22;2582;48.770;9.190;2023-07-09T01:01:15;24.40;98.30
5128;DHT22;2582;48.770;9.190;2023-07-09T01:03:47;24.30;98.70
5128;DHT22;2582;48.770;9.190;2023-07-09T01:06:15;24.20;99.00
5128;DHT22;2582;48.770;9.190;2023-07-09T01:08:43;24.20;99.30
5128;DHT22;2582;48.770;9.190;2023-07-09T01:11:16;24.20;99.50
5128;DHT22;2582;48.770;9.190;2023-07-09T01:13:50;24.00;99.90
5128;DHT22;2582;48.770;9.190;2023-07-09T01:16:17;24.00;99.90
5128;DHT22;2582;48.770;9.190;2023-07-09T01:18:43;24.00;99.90
5128;DHT22;2582;48.770;9.190;2023-07-09T01:21:10;23.90;99.90
5128;DHT22;2582;48.770;9.190;2023-07-09T01:23:43;23.90;99.90
5128;DHT22;2582;48.770;9.190;2023-07-09T01:26:11;23.90;99.90
5128;DHT22;2582;48.770;9.190;2023-07-09T01:28:38;23.60;99.90
5128;DHT22;2582;48.770;9.190;2023-07-09T01:31:07;23.70;99.90
5128;DHT22;2582;48.770;9.190;2023-07-09T01:33:33;23.70;99.90
5128;DHT22;2582;48.770;9.190;2023-07-09T01:35:59;23.70;99.90
5128;DHT22;2582;48.770;9.190;2023-07-09T01:38:29;23.70;99.90
5128;DHT22;2582;48.770;9.190;2023-07-09T01:40:57;23.70;99.90
5128;DHT22;2582;48.770;9.190;2023-07-09T01:43:23;23.70;99.90
5128;DHT22;2582;48.770;9.190;2023-07-09T01:45:50;23.60;99.90
5128;DHT22;2582;48.770;9.190;2023-07-09T01:48:20;23.50;99.90
5128;DHT22;2582;48.770;9.190;2023-07-09T01:50:46;23.40;99.90
5128;DHT22;2582;48.770;9.190;2023-07-09T01:53:16;23.30;99.90
5128;DHT22;2582;48.770;9.190;2023-07-09T01:55:43;23.30;99.90
5128;DHT22;2582;48.770;9.190;2023-07-09T01:58:08;23.30;99.90
5128;DHT22;2582;48.770;9.190;2023-07-09T02:00:34;23.30;99.90
5128;DHT22;2582;48.770;9.190;2023-07-09T02:03:00;23.40;99.90
5128;DHT22;2582;48.770;9.190;2023-07-09T02:05:29;23.60;99.90
5128;DHT22;2582;48.770;9.190;2023-07-09T02:07:55;23.70;99.90
5128;DHT22;2582;48.770;9.190;2023-07-09T02:10:21;23.70;99.90
5128;DHT22;2582;48.770;9.190;2023-07-09T02:12:47;23.70;99.90
5128;DHT22;2582;48.770;9.190;2023-07-09T02:15:14;23.80;99.90
5128;DHT22;2582;48.770;9.190;2023-07-09T02:17:40;23.70;99.90
5128;DHT22;2582;48.770;9.190;2023-07-09T02:20:08;23.70;99.90
5128;DHT22;2582;48.770;9.190;2023-07-09T02:22:34;23.70;99.90
5128;DHT22;2582;48.770;9.190;2023-07-09T02:25:00;23.60;99.90
5128;DHT22;2582;48.770;9.190;2023-07-09T02:27:26;23.50;99.90
5128;DHT22;2582;48.770;9.190;2023-07-09T02:29:53;23.40;99.90
5128;DHT22;2582;48.770;9.190;2023-07-09T02:32:22;23.40;99.90
5128;DHT22;2582;48.770;9.190;2023-07-09T02:34:48;23.30;99.90
5128;DHT22;2582;48.770;9.190;2023-07-09T02:37:25;23.20;99.90
5128;DHT22;2582;48.770;9.190;2023-07-09T02:39:51;23.20;99.90
5128;DHT22;2582;48.770;9.190;2023-07-09T02:42:19;23.10;99.90
5128;DHT22;2582;48.770;9.190;2023-07-09T02:44:45;23.10;99.90
5128;DHT22;2582;48.770;9.190;2023-07-09T02:47:12;23.10;99.90
5128;DHT22;2582;48.770;9.190;2023-07-09T02:49:38;23.20;99.90
5128;DHT22;2582;48.770;9.190;2023-07-09T02:52:04;23.10;99.90
5128;DHT22;2582;48.770;9.190;2023-07-09T02:54:30;23.20;99.90
5128;DHT22;2582;48.770;9.190;2023-07-09T02:56:56;23.30;99.90
5128;DHT22;2582;48.770;9.190;2023-07-09T02:59:22;23.30;99.90
5128;DHT22;2582;48.770;9.190;2023-07-09T03:01:48;23.30;99.90
5128;DHT22;2582;48.770;9.190;2023-07-09T03:04:14;23.30;99.90
5128;DHT22;2582;48.770;9.190;2023-07-09T03:06:40;23.30;99.90
5128;DHT22;2582;48.770;9.190;2023-07-09T03:09:06;23.20;99.90
5128;DHT22;2582;48.770;9.190;2023-07-09T03:11:34;23.10;99.90
5128;DHT22;2582;48.770;9.190;2023-07-09T03:14:00;23.10;99.90
5128;DHT22;2582;48.770;9.190;2023-07-09T03:16:31;23.10;99.90
5128;DHT22;2582;48.770;9.190;2023-07-09T03:18:57;23.00;99.90
5128;DHT22;2582;48.770;9.190;2023-07-09T03:21:24;22.90;99.90
5128;DHT22;2582;48.770;9.190;2023-07-09T03:23:51;22.80;99.90
5128;DHT22;2582;48.770;9.190;2023-07-09T03:26:17;22.80;99.90
5128;DHT22;2582;48.770;9.190;2023-07-09T03:28:42;22.80;99.90
5128;DHT22;2582;48.770;9.190;2023-07-09T03:31:08;22.70;99.90
5128;DHT22;2582;48.770;9.190;2023-07-09T03:33:34;22.70;99.90
5128;DHT22;2582;48.770;9.190;2023-07-09T03:35:59;22.70;99.90
5128;DHT22;2582;48.770;9.190;2023-07-09T03:38:25;22.80;99.90
5128;DHT22;2582;48.770;9.190;2023-07-09T03:40:54;22.90;99.90
5128;DHT22;2582;48.770;9.190;2023-07-09T03:43:21;23.00;99.90
5128;DHT22;2582;48.770;9.190;2023-07-09T03:45:47;22.90;99.90
5128;DHT22;2582;48.770;9.190;2023-07-09T03:48:14;23.00;99.90
5128;DHT22;2582;48.770;9.190;2023-07-09T03:50:42;23.00;99.90
5128;DHT22;2582;48.770;9.190;2023-07-09T03:53:08;22.90;99.90
5128;DHT22;2582;48.770;9.190;2023-07-09T03:55:34;22.90;99.90
5128;DHT22;2582;48.770;9.190;2023-07-09T03:57:59;22.80;99.90
5128;DHT22;2582;48.770;9.190;2023-07-09T04:00:25;22.80;99.90
5128;DHT22;2582;48.770;9.190;2023-07-09T04:02:51;22.80;99.90
5128;DHT22;2582;48.770;9.190;2023-07-09T04:05:17;22.80;99.90
5128;DHT22;2582;48.770;9.190;2023-07-09T04:07:43;22.80;99.90
5128;DHT22;2582;48.770;9.190;2023-07-09T04:10:09;22.80;99.90
5128;DHT22;2582;48.770;9.190;2023-07-09T04:12:35;22.80;99.90
5128;DHT22;2582;48.770;9.190;2023-07-09T04:15:05;22.80;99.90
5128;DHT22;2582;48.770;9.190;2023-07-09T04:17:32;22.70;99.90
5128;DHT22;2582;48.770;9.190;2023-07-09T04:19:57;22.70;99.90
5128;DHT22;2582;48.770;9.190;2023-07-09T04:22:23;22.80;99.90
5128;DHT22;2582;48.770;9.190;2023-07-09T04:24:48;22.80;99.90
5128;DHT22;2582;48.770;9.190;2023-07-09T04:27:15;22.70;99.90
5128;DHT22;2582;48.770;9.190;2023-07-09T04:29:41;22.80;99.90
5128;DHT22;2582;48.770;9.190;2023-07-09T04:32:11;22.80;99.90
5128;DHT22;2582;48.770;9.190;2023-07-09T04:34:37;22.80;99.90
5128;DHT22;2582;48.770;9.190;2023-07-09T04:37:07;22.80;99.90
5128;DHT22;2582;48.770;9.190;2023-07-09T04:39:34;22.80;99.90
5128;DHT22;2582;48.770;9.190;2023-07-09T04:42:00;22.90;99.90
5128;DHT22;2582;48.770;9.190;2023-07-09T04:44:26;23.00;99.90
5128;DHT22;2582;48.770;9.190;2023-07-09T04:46:51;23.10;99.90
5128;DHT22;2582;48.770;9.190;2023-07-09T04:49:17;23.10;99.90
5128;DHT22;2582;48.770;9.190;2023-07-09T04:51:42;23.10;99.90
5128;DHT22;2582;48.770;9.190;2023-07-09T04:54:08;23.20;99.90
5128;DHT22;2582;48.770;9.190;2023-07-09T04:56:34;23.30;99.90
5128;DHT22;2582;48.770;9.190;2023-07-09T04:58:59;23.30;99.90
5128;DHT22;2582;48.770;9.190;2023-07-09T05:01:25;23.40;99.90
5128;DHT22;2582;48.770;9.190;2023-07-09T05:03:50;23.40;99.90
5128;DHT22;2582;48.770;9.190;2023-07-09T05:06:16;23.40;99.90
5128;DHT22;2582;48.770;9.190;2023-07-09T05:08:42;23.50;99.90
5128;DHT22;2582;48.770;9.190;2023-07-09T05:11:08;23.50;99.90
5128;DHT22;2582;48.770;9.190;2023-07-09T05:13:34;23.70;99.90
5128;DHT22;2582;48.770;9.190;2023-07-09T05:15:59;23.70;99.90
5128;DHT22;2582;48.770;9.190;2023-07-09T05:18:25;23.70;99.90
5128;DHT22;2582;48.770;9.190;2023-07-09T05:20:51;23.90;99.90
5128;DHT22;2582;48.770;9.190;2023-07-09T05:23:16;24.00;99.90
5128;DHT22;2582;48.770;9.190;2023-07-09T05:25:42;24.20;99.90
5128;DHT22;2582;48.770;9.190;2023-07-09T05:28:07;24.20;99.90
5128;DHT22;2582;48.770;9.190;2023-07-09T05:30:33;24.30;99.90
5128;DHT22;2582;48.770;9.190;2023-07-09T05:32:58;24.40;99.90
5128;DHT22;2582;48.770;9.190;2023-07-09T05:35:26;24.50;99.90
5128;DHT22;2582;48.770;9.190;2023-07-09T05:37:52;24.60;99.90
5128;DHT22;2582;48.770;9.190;2023-07-09T05:40:18;24.80;99.90
5128;DHT22;2582;48.770;9.190;2023-07-09T05:42:44;24.80;99.90
5128;DHT22;2582;48.770;9.190;2023-07-09T05:45:10;24.90;99.90
5128;DHT22;2582;48.770;9.190;2023-07-09T05:47:36;25.00;99.90
5128;DHT22;2582;48.770;9.190;2023-07-09T05:50:02;25.10;99.90
5128;DHT22;2582;48.770;9.190;2023-07-09T05:52:29;25.20;99.90
5128;DHT22;2582;48.770;9.190;2023-07-09T05:54:55;25.30;99.90
5128;DHT22;2582;48.770;9.190;2023-07-09T05:57:21;25.30;99.90
5128;DHT22;2582;48.770;9.190;2023-07-09T05:59:47;25.50;99.90
5128;DHT22;2582;48.770;9.190;2023-07-09T06:02:16;25.50;99.90
5128;DHT22;2582;48.770;9.190;2023-07-09T06:04:43;25.80;99.90
5128;DHT22;2582;48.770;9.190;2023-07-09T06:07:09;26.00;99.90
5128;DHT22;2582;48.770;9.190;2023-07-09T06:09:35;26.10;99.90
5128;DHT22;2582;48.770;9.190;2023-07-09T06:12:02;26.30;99.90
5128;DHT22;2582;48.770;9.190;2023-07-09T06:14:28;26.30;99.90
5128;DHT22;2582;48.770;9.190;2023-07-09T06:16:54;26.40;99.90
5128;DHT22;2582;48.770;9.190;2023-07-09T06:19:20;26.50;99.90
5128;DHT22;2582;48.770;9.190;2023-07-09T06:21:45;26.50;99.90
5128;DHT22;2582;48.770;9.190;2023-07-09T06:24:11;26.70;99.90
5128;DHT22;2582;48.770;9.190;2023-07-09T06:26:37;26.80;99.90
5128;DHT22;2582;48.770;9.190;2023-07-09T06:29:02;26.90;99.90
5128;DHT22;2582;48.770;9.190;2023-07-09T06:31:28;27.00;99.90
5128;DHT22;2582;48.770;9.190;2023-07-09T06:33:54;27.10;99.90
5128;DHT22;2582;48.770;9.190;2023-07-09T06:36:20;27.20;99.70
5128;DHT22;2582;48.770;9.190;2023-07-09T06:38:45;27.10;99.20
5128;DHT22;2582;48.770;9.190;2023-07-09T06:41:15;27.20;99.10
5128;DHT22;2582;48.770;9.190;2023-07-09T06:43:41;27.40;99.00
5128;DHT22;2582;48.770;9.190;2023-07-09T06:46:12;27.20;98.60
5128;DHT22;2582;48.770;9.190;2023-07-09T06:48:38;27.20;98.90
5128;DHT22;2582;48.770;9.190;2023-07-09T06:51:04;27.30;98.80
5128;DHT22;2582;48.770;9.190;2023-07-09T06:53:30;27.50;98.40
5128;DHT22;2582;48.770;9.190;2023-07-09T06:55:56;27.70;98.10
5128;DHT22;2582;48.770;9.190;2023-07-09T06:58:25;27.90;97.70
5128;DHT22;2582;48.770;9.190;2023-07-09T07:00:51;28.10;97.60
5128;DHT22;2582;48.770;9.190;2023-07-09T07:03:16;28.20;96.90
5128;DHT22;2582;48.770;9.190;2023-07-09T07:05:46;28.30;96.80
5128;DHT22;2582;48.770;9.190;2023-07-09T07:08:15;28.10;96.00
5128;DHT22;2582;48.770;9.190;2023-07-09T07:10:42;28.00;96.70
5128;DHT22;2582;48.770;9.190;2023-07-09T07:13:08;28.20;96.10
5128;DHT22;2582;48.770;9.190;2023-07-09T07:15:36;28.20;96.20
5128;DHT22;2582;48.770;9.190;2023-07-09T07:18:02;28.40;95.70
5128;DHT22;2582;48.770;9.190;2023-07-09T07:20:29;28.40;95.90
5128;DHT22;2582;48.770;9.190;2023-07-09T07:22:55;28.30;95.30
5128;DHT22;2582;48.770;9.190;2023-07-09T07:25:22;28.10;95.40
5128;DHT22;2582;48.770;9.190;2023-07-09T07:27:48;27.90;95.80
5128;DHT22;2582;48.770;9.190;2023-07-09T07:30:14;28.20;95.70
5128;DHT22;2582;48.770;9.190;2023-07-09T07:32:45;28.30;94.60
5128;DHT22;2582;48.770;9.190;2023-07-09T07:35:11;28.20;94.50
5128;DHT22;2582;48.770;9.190;2023-07-09T07:37:41;28.40;94.40
5128;DHT22;2582;48.770;9.190;2023-07-09T07:40:08;28.70;94.00
5128;DHT22;2582;48.770;9.190;2023-07-09T07:42:34;28.90;94.10
5128;DHT22;2582;48.770;9.190;2023-07-09T07:44:59;29.10;93.50
5128;DHT22;2582;48.770;9.190;2023-07-09T07:47:26;29.40;93.30
5128;DHT22;2582;48.770;9.190;2023-07-09T07:49:53;29.50;93.10
5128;DHT22;2582;48.770;9.190;2023-07-09T07:52:18;29.60;93.00
5128;DHT22;2582;48.770;9.190;2023-07-09T07:54:44;29.70;92.70
5128;DHT22;2582;48.770;9.190;2023-07-09T07:57:10;29.80;92.80
5128;DHT22;2582;48.770;9.190;2023-07-09T07:59:37;29.80;91.60
5128;DHT22;2582;48.770;9.190;2023-07-09T08:02:04;29.20;92.30
5128;DHT22;2582;48.770;9.190;2023-07-09T08:04:30;28.90;92.50
5128;DHT22;2582;48.770;9.190;2023-07-09T08:06:55;29.00;92.30
5128;DHT22;2582;48.770;9.190;2023-07-09T08:09:21;29.10;92.50
5128;DHT22;2582;48.770;9.190;2023-07-09T08:11:47;29.10;91.60
5128;DHT22;2582;48.770;9.190;2023-07-09T08:14:14;29.20;91.30
5128;DHT22;2582;48.770;9.190;2023-07-09T08:16:40;29.20;92.00
5128;DHT22;2582;48.770;9.190;2023-07-09T08:19:06;29.40;92.10
5128;DHT22;2582;48.770;9.190;2023-07-09T08:21:32;29.30;91.80
5128;DHT22;2582;48.770;9.190;2023-07-09T08:23:57;29.30;91.30
5128;DHT22;2582;48.770;9.190;2023-07-09T08:26:23;29.20;91.60
5128;DHT22;2582;48.770;9.190;2023-07-09T08:28:50;29.30;91.80
5128;DHT22;2582;48.770;9.190;2023-07-09T08:31:16;29.60;91.40
5128;DHT22;2582;48.770;9.190;2023-07-09T08:33:42;29.80;91.00
5128;DHT22;2582;48.770;9.190;2023-07-09T08:36:08;29.90;90.40
5128;DHT22;2582;48.770;9.190;2023-07-09T08:38:33;29.80;90.20
5128;DHT22;2582;48.770;9.190;2023-07-09T08:44:21;29.90;90.60
5128;DHT22;2582;48.770;9.190;2023-07-09T08:49:53;30.20;89.90
5128;DHT22;2582;48.770;9.190;2023-07-09T08:52:30;30.10;91.40
5128;DHT22;2582;48.770;9.190;2023-07-09T08:54:59;30.30;91.80
5128;DHT22;2582;48.770;9.190;2023-07-09T08:57:33;30.50;91.10
5128;DHT22;2582;48.770;9.190;2023-07-09T09:00:13;30.50;91.20
5128;DHT22;2582;48.770;9.190;2023-07-09T09:03:03;30.70;90.90
5128;DHT22;2582;48.770;9.190;2023-07-09T09:05:33;30.90;90.80
5128;DHT22;2582;48.770;9.190;2023-07-09T09:08:12;31.10;89.70
5128;DHT22;2582;48.770;9.190;2023-07-09T09:10:48;31.10;88.80
5128;DHT22;2582;48.770;9.190;2023-07-09T09:13:16;31.00;88.00
5128;DHT22;2582;48.770;9.190;2023-07-09T09:15:44;31.10;87.10
5128;DHT22;2582;48.770;9.190;2023-07-09T09:18:19;31.10;87.30
5128;DHT22;2582;48.770;9.190;2023-07-09T09:20:51;30.90;87.20
5128;DHT22;2582;48.770;9.190;2023-07-09T09:23:18;30.80;87.30
5128;DHT22;2582;48.770;9.190;2023-07-09T09:25:51;30.80;86.80
5128;DHT22;2582;48.770;9.190;2023-07-09T09:28:18;30.90;86.50
5128;DHT22;2582;48.770;9.190;2023-07-09T09:30:43;31.10;84.60
5128;DHT22;2582;48.770;9.190;2023-07-09T09:33:10;31.30;83.70
5128;DHT22;2582;48.770;9.190;2023-07-09T09:35:40;31.50;83.50
5128;DHT22;2582;48.770;9.190;2023-07-09T09:38:16;31.70;82.80
5128;DHT22;2582;48.770;9.190;2023-07-09T09:40:42;31.70;82.00
5128;DHT22;2582;48.770;9.190;2023-07-09T09:43:18;31.70;81.10
5128;DHT22;2582;48.770;9.190;2023-07-09T09:45:48;31.80;81.60
5128;DHT22;2582;48.770;9.190;2023-07-09T09:48:27;31.80;81.40
5128;DHT22;2582;48.770;9.190;2023-07-09T09:50:53;32.00;81.10
5128;DHT22;2582;48.770;9.190;2023-07-09T09:53:23;31.90;79.00
5128;DHT22;2582;48.770;9.190;2023-07-09T09:55:50;32.00;78.50
5128;DHT22;2582;48.770;9.190;2023-07-09T09:58:17;32.10;77.80
5128;DHT22;2582;48.770;9.190;2023-07-09T10:00:51;32.40;77.60
5128;DHT22;2582;48.770;9.190;2023-07-09T10:03:17;32.70;72.60
5128;DHT22;2582;48.770;9.190;2023-07-09T10:05:55;32.90;68.70
5128;DHT22;2582;48.770;9.190;2023-07-09T10:11:18;33.30;66.00
5128;DHT22;2582;48.770;9.190;2023-07-09T10:13:45;33.10;59.50
5128;DHT22;2582;48.770;9.190;2023-07-09T10:21:22;33.40;62.10
5128;DHT22;2582;48.770;9.190;2023-07-09T10:26:32;33.80;59.40
5128;DHT22;2582;48.770;9.190;2023-07-09T10:29:31;33.90;56.70
5128;DHT22;2582;48.770;9.190;2023-07-09T10:35:05;33.80;56.80
5128;DHT22;2582;48.770;9.190;2023-07-09T10:40:11;33.80;56.40
5128;DHT22;2582;48.770;9.190;2023-07-09T10:42:44;33.90;56.80
5128;DHT22;2582;48.770;9.190;2023-07-09T10:45:19;33.60;56.70
5128;DHT22;2582;48.770;9.190;2023-07-09T10:47:55;33.90;54.70
5128;DHT22;2582;48.770;9.190;2023-07-09T10:50:30;33.90;53.80
5128;DHT22;2582;48.770;9.190;2023-07-09T10:53:02;33.80;53.80
5128;DHT22;2582;48.770;9.190;2023-07-09T10:55:57;34.00;51.30
5128;DHT22;2582;48.770;9.190;2023-07-09T10:58:42;33.90;51.10
5128;DHT22;2582;48.770;9.190;2023-07-09T11:01:12;34.00;51.00
5128;DHT22;2582;48.770;9.190;2023-07-09T11:03:52;34.20;51.40
5128;DHT22;2582;48.770;9.190;2023-07-09T11:06:22;34.30;51.20
5128;DHT22;2582;48.770;9.190;2023-07-09T11:08:53;34.30;51.80
5128;DHT22;2582;48.770;9.190;2023-07-09T11:11:49;34.50;50.80
5128;DHT22;2582;48.770;9.190;2023-07-09T11:14:27;34.70;51.00
5128;DHT22;2582;48.770;9.190;2023-07-09T11:16:57;34.70;49.90
5128;DHT22;2582;48.770;9.190;2023-07-09T11:19:23;34.90;50.30
5128;DHT22;2582;48.770;9.190;2023-07-09T11:22:16;34.90;48.00
5128;DHT22;2582;48.770;9.190;2023-07-09T11:24:50;34.90;47.10
5128;DHT22;2582;48.770;9.190;2023-07-09T11:27:25;34.80;45.70
5128;DHT22;2582;48.770;9.190;2023-07-09T11:30:27;34.80;45.60
5128;DHT22;2582;48.770;9.190;2023-07-09T11:33:03;35.00;45.70
5128;DHT22;2582;48.770;9.190;2023-07-09T11:35:49;36.10;46.50
5128;DHT22;2582;48.770;9.190;2023-07-09T11:38:19;37.50;43.30
5128;DHT22;2582;48.770;9.190;2023-07-09T11:40:50;38.60;42.20
5128;DHT22;2582;48.770;9.190;2023-07-09T11:43:30;39.30;41.60
5128;DHT22;2582;48.770;9.190;2023-07-09T11:46:02;40.10;40.90
5128;DHT22;2582;48.770;9.190;2023-07-09T11:48:32;40.80;39.10
5128;DHT22;2582;48.770;9.190;2023-07-09T11:51:05;42.30;37.20
5128;DHT22;2582;48.770;9.190;2023-07-09T11:53:34;43.10;35.70
5128;DHT22;2582;48.770;9.190;2023-07-09T11:56:02;41.60;36.10
5128;DHT22;2582;48.770;9.190;2023-07-09T11:58:28;40.60;36.90
5128;DHT22;2582;48.770;9.190;2023-07-09T12:00:57;41.30;37.60
5128;DHT22;2582;48.770;9.190;2023-07-09T12:03:34;41.60;34.00
5128;DHT22;2582;48.770;9.190;2023-07-09T12:06:05;42.80;31.90
5128;DHT22;2582;48.770;9.190;2023-07-09T12:08:40;42.80;32.30
5128;DHT22;2582;48.770;9.190;2023-07-09T12:11:16;42.90;32.40
5128;DHT22;2582;48.770;9.190;2023-07-09T12:13:43;43.10;31.20
5128;DHT22;2582;48.770;9.190;2023-07-09T12:16:24;42.10;32.20
5128;DHT22;2582;48.770;9.190;2023-07-09T12:18:50;41.80;32.70
5128;DHT22;2582;48.770;9.190;2023-07-09T12:21:16;41.60;31.20
5128;DHT22;2582;48.770;9.190;2023-07-09T12:23:42;41.80;30.90
5128;DHT22;2582;48.770;9.190;2023-07-09T12:26:15;43.00;30.10
5128;DHT22;2582;48.770;9.190;2023-07-09T12:28:41;42.50;30.30
5128;DHT22;2582;48.770;9.190;2023-07-09T12:31:13;42.00;31.70
5128;DHT22;2582;48.770;9.190;2023-07-09T12:33:50;42.50;31.50
5128;DHT22;2582;48.770;9.190;2023-07-09T12:36:18;43.20;30.40
5128;DHT22;2582;48.770;9.190;2023-07-09T12:38:46;44.80;29.70
5128;DHT22;2582;48.770;9.190;2023-07-09T12:41:26;44.20;29.40
5128;DHT22;2582;48.770;9.190;2023-07-09T12:43:54;43.70;30.00
5128;DHT22;2582;48.770;9.190;2023-07-09T12:46:21;44.10;29.20
5128;DHT22;2582;48.770;9.190;2023-07-09T12:48:47;44.30;28.90
5128;DHT22;2582;48.770;9.190;2023-07-09T12:51:18;43.90;29.00
5128;DHT22;2582;48.770;9.190;2023-07-09T12:53:45;42.10;30.70
5128;DHT22;2582;48.770;9.190;2023-07-09T12:56:15;42.80;29.60
5128;DHT22;2582;48.770;9.190;2023-07-09T12:58:42;44.20;28.80
5128;DHT22;2582;48.770;9.190;2023-07-09T13:01:15;45.40;28.50
5128;DHT22;2582;48.770;9.190;2023-07-09T13:03:42;45.40;28.40
5128;DHT22;2582;48.770;9.190;2023-07-09T13:06:34;44.90;29.60
5128;DHT22;2582;48.770;9.190;2023-07-09T13:09:00;44.30;30.00
5128;DHT22;2582;48.770;9.190;2023-07-09T13:11:34;44.80;29.10
5128;DHT22;2582;48.770;9.190;2023-07-09T13:14:04;45.30;28.80
5128;DHT22;2582;48.770;9.190;2023-07-09T13:16:30;43.90;28.40
5128;DHT22;2582;48.770;9.190;2023-07-09T13:18:55;43.60;29.30
5128;DHT22;2582;48.770;9.190;2023-07-09T13:21:22;43.70;28.80
5128;DHT22;2582;48.770;9.190;2023-07-09T13:23:52;44.10;28.60
5128;DHT22;2582;48.770;9.190;2023-07-09T13:26:17;44.30;28.70
5128;DHT22;2582;48.770;9.190;2023-07-09T13:28:43;44.70;27.80
5128;DHT22;2582;48.770;9.190;2023-07-09T13:31:14;44.50;27.90
5128;DHT22;2582;48.770;9.190;2023-07-09T13:33:41;44.40;27.90
5128;DHT22;2582;48.770;9.190;2023-07-09T13:36:07;44.50;27.80
5128;DHT22;2582;48.770;9.190;2023-07-09T13:38:33;45.70;27.30
5128;DHT22;2582;48.770;9.190;2023-07-09T13:41:09;45.20;26.20
5128;DHT22;2582;48.770;9.190;2023-07-09T13:43:36;44.50;27.30
5128;DHT22;2582;48.770;9.190;2023-07-09T13:46:07;44.80;27.60
5128;DHT22;2582;48.770;9.190;2023-07-09T13:48:36;44.10;28.40
5128;DHT22;2582;48.770;9.190;2023-07-09T13:51:13;43.80;29.00
5128;DHT22;2582;48.770;9.190;2023-07-09T13:53:40;43.80;29.10
5128;DHT22;2582;48.770;9.190;2023-07-09T13:56:06;43.60;29.60
5128;DHT22;2582;48.770;9.190;2023-07-09T13:58:31;43.60;29.80
5128;DHT22;2582;48.770;9.190;2023-07-09T14:00:59;44.00;29.70
5128;DHT22;2582;48.770;9.190;2023-07-09T14:03:31;45.30;28.40
5128;DHT22;2582;48.770;9.190;2023-07-09T14:05:57;45.10;28.40
5128;DHT22;2582;48.770;9.190;2023-07-09T14:08:22;44.60;28.70
5128;DHT22;2582;48.770;9.190;2023-07-09T14:10:49;44.20;29.00
5128;DHT22;2582;48.770;9.190;2023-07-09T14:13:17;44.60;28.80
5128;DHT22;2582;48.770;9.190;2023-07-09T14:15:43;45.10;28.60
5128;DHT22;2582;48.770;9.190;2023-07-09T14:18:15;45.50;28.30
5128;DHT22;2582;48.770;9.190;2023-07-09T14:20:41;46.20;28.10
5128;DHT22;2582;48.770;9.190;2023-07-09T14:23:12;45.90;28.10
5128;DHT22;2582;48.770;9.190;2023-07-09T14:25:38;44.90;29.10
5128;DHT22;2582;48.770;9.190;2023-07-09T14:28:08;43.70;29.50
5128;DHT22;2582;48.770;9.190;2023-07-09T14:30:35;43.50;30.10
5128;DHT22;2582;48.770;9.190;2023-07-09T14:33:00;44.20;29.70
5128;DHT22;2582;48.770;9.190;2023-07-09T14:35:26;44.30;29.40
5128;DHT22;2582;48.770;9.190;2023-07-09T14:37:53;43.30;30.00
5128;DHT22;2582;48.770;9.190;2023-07-09T14:40:21;43.30;29.90
5128;DHT22;2582;48.770;9.190;2023-07-09T14:42:48;44.10;29.20
5128;DHT22;2582;48.770;9.190;2023-07-09T14:45:24;44.40;28.90
5128;DHT22;2582;48.770;9.190;2023-07-09T14:47:51;44.10;29.20
5128;DHT22;2582;48.770;9.190;2023-07-09T14:50:18;45.20;28.10
5128;DHT22;2582;48.770;9.190;2023-07-09T14:52:46;46.10;27.70
5128;DHT22;2582;48.770;9.190;2023-07-09T14:55:20;45.10;28.40
5128;DHT22;2582;48.770;9.190;2023-07-09T14:57:47;45.80;27.90
5128;DHT22;2582;48.770;9.190;2023-07-09T15:00:18;46.30;27.50
5128;DHT22;2582;48.770;9.190;2023-07-09T15:02:45;46.30;27.60
5128;DHT22;2582;48.770;9.190;2023-07-09T15:05:37;45.30;27.70
5128;DHT22;2582;48.770;9.190;2023-07-09T15:08:13;45.90;27.30
5128;DHT22;2582;48.770;9.190;2023-07-09T15:10:39;45.90;27.40
5128;DHT22;2582;48.770;9.190;2023-07-09T15:13:05;45.70;27.80
5128;DHT22;2582;48.770;9.190;2023-07-09T15:15:33;45.90;27.10
5128;DHT22;2582;48.770;9.190;2023-07-09T15:18:01;46.70;26.50
5128;DHT22;2582;48.770;9.190;2023-07-09T15:20:34;46.30;26.70
5128;DHT22;2582;48.770;9.190;2023-07-09T15:23:00;45.40;26.90
5128;DHT22;2582;48.770;9.190;2023-07-09T15:25:27;45.00;27.90
5128;DHT22;2582;48.770;9.190;2023-07-09T15:27:54;44.20;28.50
5128;DHT22;2582;48.770;9.190;2023-07-09T15:30:26;43.90;28.80
5128;DHT22;2582;48.770;9.190;2023-07-09T15:32:57;42.60;29.40
5128;DHT22;2582;48.770;9.190;2023-07-09T15:35:23;41.60;30.40
5128;DHT22;2582;48.770;9.190;2023-07-09T15:37:49;41.30;30.30
5128;DHT22;2582;48.770;9.190;2023-07-09T15:40:18;41.30;30.90
5128;DHT22;2582;48.770;9.190;2023-07-09T15:42:46;41.50;29.80
5128;DHT22;2582;48.770;9.190;2023-07-09T15:45:14;41.10;29.90
5128;DHT22;2582;48.770;9.190;2023-07-09T15:47:41;40.70;30.80
5128;DHT22;2582;48.770;9.190;2023-07-09T15:52:40;41.10;30.90
5128;DHT22;2582;48.770;9.190;2023-07-09T15:55:16;41.10;31.00
5128;DHT22;2582;48.770;9.190;2023-07-09T15:57:42;41.20;31.60
5128;DHT22;2582;48.770;9.190;2023-07-09T16:00:17;41.60;30.40
5128;DHT22;2582;48.770;9.190;2023-07-09T16:02:43;41.80;30.90
5128;DHT22;2582;48.770;9.190;2023-07-09T16:05:24;42.10;30.80
5128;DHT22;2582;48.770;9.190;2023-07-09T16:07:51;42.10;30.00
5128;DHT22;2582;48.770;9.190;2023-07-09T16:10:18;42.10;30.70
5128;DHT22;2582;48.770;9.190;2023-07-09T16:12:46;41.40;30.30
5128;DHT22;2582;48.770;9.190;2023-07-09T16:15:13;40.90;31.80
5128;DHT22;2582;48.770;9.190;2023-07-09T16:17:41;40.50;31.80
5128;DHT22;2582;48.770;9.190;2023-07-09T16:20:09;40.20;31.70
5128;DHT22;2582;48.770;9.190;2023-07-09T16:22:35;40.20;32.60
5128;DHT22;2582;48.770;9.190;2023-07-09T16:25:20;40.00;33.20
5128;DHT22;2582;48.770;9.190;2023-07-09T16:27:46;40.00;33.20
5128;DHT22;2582;48.770;9.190;2023-07-09T16:30:18;39.90;33.00
5128;DHT22;2582;48.770;9.190;2023-07-09T16:32:45;39.70;33.60
5128;DHT22;2582;48.770;9.190;2023-07-09T16:35:16;39.50;34.40
5128;DHT22;2582;48.770;9.190;2023-07-09T16:37:43;39.10;35.30
5128;DHT22;2582;48.770;9.190;2023-07-09T16:40:20;38.90;36.60
5128;DHT22;2582;48.770;9.190;2023-07-09T16:42:48;38.70;37.90